Terminal Aerodrome Forecast
Issued by NWS Shreveport, LA

Home | Current Version | Previous Version | Text Only | Print | Product List | Glossary On
Versions: 1 2 3 4 5 6 7 8 9 10 11 12 13 14 15 16 17
000
FTUS44 KSHV 082341
TAFSHV
TAF
KSHV 082341Z 0900/0924 01009KT P6SM OVC100
     FM090600 36005KT P6SM SCT100 BKN250
     FM090900 01005KT P6SM SKC
     FM091500 06007KT P6SM SKC=

USA.gov is the U.S. government's official web portal to all federal, state and local government web resources and services.